createdAt,value
2019-01-22T00:00:54.937Z,1010.78
2019-01-22T00:01:54.946Z,1010.79
2019-01-22T00:02:54.961Z,1010.77
2019-01-22T00:03:54.971Z,1010.80
2019-01-22T00:04:54.983Z,1010.78
2019-01-22T00:05:54.997Z,1010.76
2019-01-22T00:06:55.008Z,1010.72
2019-01-22T00:07:55.016Z,1010.71
2019-01-22T00:08:55.030Z,1010.67
2019-01-22T00:09:55.039Z,1010.67
2019-01-22T00:10:55.055Z,1010.64
2019-01-22T00:11:55.074Z,1010.59
2019-01-22T00:12:55.076Z,1010.57
2019-01-22T00:13:55.089Z,1010.54
2019-01-22T00:14:55.101Z,1010.55
2019-01-22T00:15:55.110Z,1010.53
2019-01-22T00:16:55.123Z,1010.47
2019-01-22T00:17:55.133Z,1010.50
2019-01-22T00:18:55.146Z,1010.46
2019-01-22T00:19:55.155Z,1010.48
2019-01-22T00:20:55.170Z,1010.44
2019-01-22T00:21:55.186Z,1010.40
2019-01-22T00:22:55.193Z,1010.42
2019-01-22T00:23:55.203Z,1010.39
2019-01-22T00:24:55.218Z,1010.37
2019-01-22T00:25:55.227Z,1010.36
2019-01-22T00:26:55.236Z,1010.35
2019-01-22T00:27:55.247Z,1010.30
2019-01-22T00:28:55.261Z,1010.33
2019-01-22T00:29:55.272Z,1010.31
2019-01-22T00:30:55.286Z,1010.27
2019-01-22T00:31:55.293Z,1010.20
2019-01-22T00:32:55.305Z,1010.21
2019-01-22T00:33:55.320Z,1010.20
2019-01-22T00:34:55.328Z,1010.21
2019-01-22T00:35:55.339Z,1010.19
2019-01-22T00:36:55.352Z,1010.18
2019-01-22T00:37:55.362Z,1010.24
2019-01-22T00:38:55.375Z,1010.21
2019-01-22T00:39:55.384Z,1010.21
2019-01-22T00:40:55.399Z,1010.22
2019-01-22T00:41:55.409Z,1010.20
2019-01-22T00:42:55.423Z,1010.21
2019-01-22T00:43:55.430Z,1010.25
2019-01-22T00:44:55.443Z,1010.24
2019-01-22T00:45:55.453Z,1010.25
2019-01-22T00:46:55.465Z,1010.21
2019-01-22T00:47:55.476Z,1010.19
2019-01-22T00:48:55.488Z,1010.20
2019-01-22T00:49:55.502Z,1010.21
2019-01-22T00:50:55.510Z,1010.17
2019-01-22T00:51:55.524Z,1010.17
2019-01-22T00:52:55.535Z,1010.13
2019-01-22T00:53:55.544Z,1010.11
2019-01-22T00:54:55.559Z,1010.09
2019-01-22T00:55:55.567Z,1010.07
2019-01-22T00:56:55.578Z,1010.08
2019-01-22T00:57:55.592Z,1010.08
2019-01-22T00:58:55.603Z,1010.03
2019-01-22T00:59:55.614Z,1010.00
2019-01-22T01:00:55.623Z,1010.01
2019-01-22T01:01:55.635Z,1009.95
2019-01-22T01:02:55.650Z,1009.99
2019-01-22T01:03:55.660Z,1009.98
2019-01-22T01:04:55.668Z,1009.97
2019-01-22T01:05:55.683Z,1009.98
2019-01-22T01:06:55.691Z,1009.97
2019-01-22T01:07:55.704Z,1009.93
2019-01-22T01:08:55.713Z,1009.97
2019-01-22T01:09:55.724Z,1009.92
2019-01-22T01:10:55.739Z,1009.94
2019-01-22T01:11:55.746Z,1009.95
2019-01-22T01:12:55.757Z,1009.94
2019-01-22T01:13:55.768Z,1009.87
2019-01-22T01:14:55.782Z,1009.85
2019-01-22T01:15:55.790Z,1009.83
2019-01-22T01:16:55.802Z,1009.84
2019-01-22T01:17:55.815Z,1009.78
2019-01-22T01:18:55.825Z,1009.76
2019-01-22T01:19:55.834Z,1009.73
2019-01-22T01:20:55.845Z,1009.74
2019-01-22T01:21:55.857Z,1009.76
2019-01-22T01:22:55.868Z,1009.74
2019-01-22T01:23:55.881Z,1009.69
2019-01-22T01:24:55.889Z,1009.67
2019-01-22T01:25:55.904Z,1009.67
2019-01-22T01:26:55.912Z,1009.60
2019-01-22T01:27:55.925Z,1009.58
2019-01-22T01:28:55.933Z,1009.58
2019-01-22T01:29:55.946Z,1009.56
2019-01-22T01:30:55.958Z,1009.54
2019-01-22T01:31:55.967Z,1009.55
2019-01-22T01:32:56.017Z,1009.57
2019-01-22T01:33:55.988Z,1009.52
2019-01-22T01:34:56.004Z,1009.46
2019-01-22T01:35:56.009Z,1009.43
2019-01-22T01:36:56.019Z,1009.43
2019-01-22T01:37:56.033Z,1009.43
2019-01-22T01:38:56.045Z,1009.36
2019-01-22T01:39:56.053Z,1009.33
2019-01-22T01:40:56.065Z,1009.26
2019-01-22T01:41:56.076Z,1009.26
2019-01-22T01:42:56.086Z,1009.20
2019-01-22T01:43:56.096Z,1009.17
2019-01-22T01:44:56.106Z,1009.16
2019-01-22T01:45:56.119Z,1009.15
2019-01-22T01:46:56.128Z,1009.10
2019-01-22T01:47:56.138Z,1009.06
2019-01-22T01:48:56.150Z,1009.06
2019-01-22T01:49:56.162Z,1009.02
2019-01-22T01:50:56.174Z,1008.99
2019-01-22T01:51:56.182Z,1009.02
2019-01-22T01:52:56.194Z,1009.01
2019-01-22T01:53:56.207Z,1009.00
2019-01-22T01:54:56.216Z,1009.02
2019-01-22T01:55:56.224Z,1009.01
2019-01-22T01:56:56.236Z,1009.00
2019-01-22T01:57:56.246Z,1008.95
2019-01-22T01:58:56.260Z,1008.96
2019-01-22T01:59:56.271Z,1008.93
2019-01-22T02:00:56.277Z,1008.91
2019-01-22T02:01:56.292Z,1008.89
2019-01-22T02:02:56.303Z,1008.94
2019-01-22T02:03:56.309Z,1008.88
2019-01-22T02:04:56.322Z,1008.86
2019-01-22T02:05:56.336Z,1008.87
2019-01-22T02:06:56.342Z,1008.86
2019-01-22T02:07:56.352Z,1008.84
2019-01-22T02:08:56.365Z,1008.80
2019-01-22T02:09:56.377Z,1008.76
2019-01-22T02:10:56.387Z,1008.76
2019-01-22T02:11:56.396Z,1008.75
2019-01-22T02:12:56.405Z,1008.71
2019-01-22T02:13:56.415Z,1008.71
2019-01-22T02:14:56.429Z,1008.67
2019-01-22T02:15:56.440Z,1008.68
2019-01-22T02:16:56.451Z,1008.64
2019-01-22T02:17:56.458Z,1008.70
2019-01-22T02:18:56.471Z,1008.68
2019-01-22T02:19:56.480Z,1008.67
2019-01-22T02:20:56.491Z,1008.65
2019-01-22T02:21:56.502Z,1008.66
2019-01-22T02:22:56.511Z,1008.62
2019-01-22T02:23:56.521Z,1008.59
2019-01-22T02:24:56.532Z,1008.58
2019-01-22T02:25:56.550Z,1008.53
2019-01-22T02:26:56.556Z,1008.51
2019-01-22T02:27:56.566Z,1008.46
2019-01-22T02:28:56.573Z,1008.43
2019-01-22T02:29:56.584Z,1008.42
2019-01-22T02:30:56.597Z,1008.38
2019-01-22T02:31:56.707Z,1008.39
2019-01-22T02:32:56.618Z,1008.30
2019-01-22T02:33:56.626Z,1008.32
2019-01-22T02:34:56.640Z,1008.29
2019-01-22T02:35:56.650Z,1008.30
2019-01-22T02:36:56.658Z,1008.24
2019-01-22T02:37:56.668Z,1008.23
2019-01-22T02:38:56.681Z,1008.19
2019-01-22T02:39:56.688Z,1008.18
2019-01-22T02:40:56.702Z,1008.21
2019-01-22T02:41:56.713Z,1008.20
2019-01-22T02:42:56.720Z,1008.16
2019-01-22T02:43:56.733Z,1008.13
2019-01-22T02:44:56.744Z,1008.12
2019-01-22T02:45:56.754Z,1008.08
2019-01-22T02:46:56.762Z,1008.04
2019-01-22T02:47:56.776Z,1008.02
2019-01-22T02:48:56.783Z,1008.01
2019-01-22T02:49:56.796Z,1007.97
2019-01-22T02:50:56.807Z,1007.94
2019-01-22T02:51:56.814Z,1007.91
2019-01-22T02:52:56.825Z,1007.90
2019-01-22T02:53:56.838Z,1007.85
2019-01-22T02:54:56.846Z,1007.87
2019-01-22T02:55:56.856Z,1007.85
2019-01-22T02:56:56.866Z,1007.82
2019-01-22T02:57:56.878Z,1007.81
2019-01-22T02:58:56.887Z,1007.83
2019-01-22T02:59:56.900Z,1007.79
2019-01-22T03:00:56.907Z,1007.75
2019-01-22T03:01:56.923Z,1007.70
2019-01-22T03:02:56.928Z,1007.63
2019-01-22T03:03:56.938Z,1007.66
2019-01-22T03:04:56.951Z,1007.66
2019-01-22T03:05:56.962Z,1007.65
2019-01-22T03:06:56.971Z,1007.64
2019-01-22T03:07:56.982Z,1007.69
2019-01-22T03:08:56.990Z,1007.68
2019-01-22T03:09:57.000Z,1007.62
2019-01-22T03:10:57.011Z,1007.68
2019-01-22T03:11:57.020Z,1007.62
2019-01-22T03:12:57.034Z,1007.61
2019-01-22T03:13:57.044Z,1007.55
2019-01-22T03:14:57.055Z,1007.54
2019-01-22T03:15:57.063Z,1007.58
2019-01-22T03:16:57.073Z,1007.56
2019-01-22T03:17:57.086Z,1007.52
2019-01-22T03:18:57.097Z,1007.55
2019-01-22T03:19:57.103Z,1007.48
2019-01-22T03:20:57.114Z,1007.48
2019-01-22T03:21:57.127Z,1007.47
2019-01-22T03:22:57.137Z,1007.46
2019-01-22T03:23:57.145Z,1007.47
2019-01-22T03:24:57.158Z,1007.44
2019-01-22T03:25:57.167Z,1007.45
2019-01-22T03:26:57.176Z,1007.44
2019-01-22T03:27:57.186Z,1007.43
2019-01-22T03:28:57.202Z,1007.40
2019-01-22T03:29:57.214Z,1007.41
2019-01-22T03:30:57.221Z,1007.37
2019-01-22T03:31:57.230Z,1007.34
2019-01-22T03:32:57.237Z,1007.33
2019-01-22T03:33:57.247Z,1007.30
2019-01-22T03:34:57.261Z,1007.31
2019-01-22T03:35:57.268Z,1007.31
2019-01-22T03:36:57.278Z,1007.25
2019-01-22T03:37:57.287Z,1007.25
2019-01-22T03:38:57.302Z,1007.21
2019-01-22T03:39:57.316Z,1007.22
2019-01-22T03:40:57.320Z,1007.22
2019-01-22T03:41:57.330Z,1007.25
2019-01-22T03:42:57.341Z,1007.28
2019-01-22T03:43:57.356Z,1007.23
2019-01-22T03:44:57.361Z,1007.24
2019-01-22T03:45:57.409Z,1007.16
2019-01-22T03:46:57.379Z,1007.20
2019-01-22T03:47:57.389Z,1007.18
2019-01-22T03:48:57.402Z,1007.19
2019-01-22T03:49:57.409Z,1007.14
2019-01-22T03:50:57.422Z,1007.16
2019-01-22T03:51:57.431Z,1007.17
2019-01-22T03:52:57.439Z,1007.15
2019-01-22T03:53:57.457Z,1007.11
2019-01-22T03:54:57.459Z,1007.08
2019-01-22T03:55:57.471Z,1007.08
2019-01-22T03:56:57.482Z,1007.02
2019-01-22T03:57:57.492Z,1007.02
2019-01-22T03:58:57.500Z,1007.05
2019-01-22T03:59:57.513Z,1007.00
2019-01-22T04:00:57.521Z,1007.01
2019-01-22T04:01:57.533Z,1006.93
2019-01-22T04:02:57.540Z,1006.91
2019-01-22T04:03:57.555Z,1006.89
2019-01-22T04:04:57.559Z,1006.86
2019-01-22T04:05:57.569Z,1006.85
2019-01-22T04:06:57.582Z,1006.80
2019-01-22T04:07:57.590Z,1006.79
2019-01-22T04:08:57.605Z,1006.79
2019-01-22T04:09:57.612Z,1006.77
2019-01-22T04:10:57.624Z,1006.77
2019-01-22T04:11:57.630Z,1006.73
2019-01-22T04:12:57.640Z,1006.73
2019-01-22T04:13:57.649Z,1006.70
2019-01-22T04:14:57.659Z,1006.70
2019-01-22T04:15:57.669Z,1006.63
2019-01-22T04:16:57.681Z,1006.60
2019-01-22T04:17:57.695Z,1006.62
2019-01-22T04:18:57.707Z,1006.54
2019-01-22T04:19:57.711Z,1006.56
2019-01-22T04:20:57.825Z,1006.55
2019-01-22T04:21:57.732Z,1006.53
2019-01-22T04:22:57.739Z,1006.53
2019-01-22T04:24:01.851Z,1006.51
2019-01-22T04:24:57.761Z,1006.51
2019-01-22T04:25:57.773Z,1006.48
2019-01-22T04:26:57.782Z,1006.42
2019-01-22T04:27:57.792Z,1006.43
2019-01-22T04:28:57.801Z,1006.39
2019-01-22T04:29:57.812Z,1006.36
2019-01-22T04:30:57.820Z,1006.36
2019-01-22T04:31:57.830Z,1006.33
2019-01-22T04:32:57.842Z,1006.33
2019-01-22T04:33:57.850Z,1006.31
2019-01-22T04:34:57.862Z,1006.29
2019-01-22T04:35:57.871Z,1006.26
2019-01-22T04:36:57.883Z,1006.24
2019-01-22T04:37:57.894Z,1006.24
2019-01-22T04:38:57.904Z,1006.22
2019-01-22T04:39:57.912Z,1006.19
2019-01-22T04:40:57.920Z,1006.14
2019-01-22T04:41:57.934Z,1006.16
2019-01-22T04:42:57.943Z,1006.16
2019-01-22T04:43:57.956Z,1006.13
2019-01-22T04:44:57.961Z,1006.13
2019-01-22T04:45:57.970Z,1006.13
2019-01-22T04:46:57.980Z,1006.12
2019-01-22T04:47:57.990Z,1006.07
2019-01-22T04:48:58.002Z,1006.09
2019-01-22T04:49:58.012Z,1006.10
2019-01-22T04:50:58.020Z,1006.06
2019-01-22T04:51:58.030Z,1006.07
2019-01-22T04:52:58.043Z,1006.01
2019-01-22T04:53:58.052Z,1006.00
2019-01-22T04:54:58.062Z,1005.99
2019-01-22T04:55:58.073Z,1005.95
2019-01-22T04:56:58.086Z,1005.97
2019-01-22T04:57:58.093Z,1005.96
2019-01-22T04:58:58.100Z,1005.88
2019-01-22T04:59:58.112Z,1005.82
2019-01-22T05:00:58.120Z,1005.81
2019-01-22T05:01:58.130Z,1005.79
2019-01-22T05:02:58.143Z,1005.75
2019-01-22T05:03:58.153Z,1005.78
2019-01-22T05:04:58.162Z,1005.78
2019-01-22T05:05:58.170Z,1005.70
2019-01-22T05:06:58.181Z,1005.75
2019-01-22T05:07:58.197Z,1005.76
2019-01-22T05:08:58.203Z,1005.74
2019-01-22T05:09:58.222Z,1005.77
2019-01-22T05:10:58.223Z,1005.79
2019-01-22T05:11:58.232Z,1005.80
2019-01-22T05:12:58.243Z,1005.77
2019-01-22T05:13:58.252Z,1005.79
2019-01-22T05:14:58.263Z,1005.74
2019-01-22T05:15:58.270Z,1005.76
2019-01-22T05:16:58.281Z,1005.68
2019-01-22T05:17:58.293Z,1005.65
2019-01-22T05:18:58.309Z,1005.62
2019-01-22T05:19:58.310Z,1005.59
2019-01-22T05:20:58.326Z,1005.66
2019-01-22T05:21:58.333Z,1005.62
2019-01-22T05:22:58.349Z,1005.61
2019-01-22T05:23:58.352Z,1005.61
2019-01-22T05:24:58.364Z,1005.62
2019-01-22T05:25:58.374Z,1005.55
2019-01-22T05:26:58.383Z,1005.58
2019-01-22T05:27:58.393Z,1005.56
2019-01-22T05:28:58.399Z,1005.54
2019-01-22T05:29:58.414Z,1005.60
2019-01-22T05:30:58.427Z,1005.59
2019-01-22T05:31:58.429Z,1005.60
2019-01-22T05:32:58.443Z,1005.62
2019-01-22T05:33:58.452Z,1005.59
2019-01-22T05:34:58.473Z,1005.60
2019-01-22T05:35:58.471Z,1005.56
2019-01-22T05:36:58.482Z,1005.46
2019-01-22T05:37:58.494Z,1005.51
2019-01-22T05:38:58.503Z,1005.50
2019-01-22T05:39:58.513Z,1005.56
2019-01-22T05:40:58.519Z,1005.55
2019-01-22T05:41:58.531Z,1005.51
2019-01-22T05:42:58.540Z,1005.54
2019-01-22T05:43:58.552Z,1005.50
2019-01-22T05:44:58.563Z,1005.49
2019-01-22T05:45:58.571Z,1005.46
2019-01-22T05:46:58.580Z,1005.46
2019-01-22T05:47:58.595Z,1005.46
2019-01-22T05:48:58.599Z,1005.44
2019-01-22T05:49:58.609Z,1005.45
2019-01-22T05:50:58.621Z,1005.42
2019-01-22T05:51:58.629Z,1005.40
2019-01-22T05:52:58.641Z,1005.40
2019-01-22T05:53:58.653Z,1005.39
2019-01-22T05:54:58.693Z,1005.37
2019-01-22T05:55:58.671Z,1005.38
2019-01-22T05:56:58.682Z,1005.35
2019-01-22T05:57:58.692Z,1005.31
2019-01-22T05:58:58.700Z,1005.30
2019-01-22T05:59:58.711Z,1005.31
2019-01-22T06:00:58.722Z,1005.31
2019-01-22T06:01:58.729Z,1005.30
2019-01-22T06:02:58.739Z,1005.30
2019-01-22T06:03:58.753Z,1005.26
2019-01-22T06:04:58.760Z,1005.27
2019-01-22T06:05:59.884Z,1005.21
2019-01-22T06:06:58.780Z,1005.20
2019-01-22T06:07:58.791Z,1005.12
2019-01-22T06:08:58.800Z,1005.13
2019-01-22T06:09:58.810Z,1005.15
2019-01-22T06:10:58.819Z,1005.13
2019-01-22T06:11:58.830Z,1005.11
2019-01-22T06:12:58.840Z,1005.08
2019-01-22T06:13:58.856Z,1005.11
2019-01-22T06:14:58.859Z,1005.11
2019-01-22T06:15:58.868Z,1005.06
2019-01-22T06:16:58.878Z,1005.08
2019-01-22T06:17:58.888Z,1005.08
2019-01-22T06:18:58.902Z,1005.08
2019-01-22T06:19:58.910Z,1005.06
2019-01-22T06:20:58.919Z,1005.07
2019-01-22T06:21:58.930Z,1005.09
2019-01-22T06:22:58.940Z,1005.06
2019-01-22T06:23:58.948Z,1005.06
2019-01-22T06:24:58.960Z,1004.99
2019-01-22T06:25:58.970Z,1005.04
2019-01-22T06:26:58.979Z,1005.00
2019-01-22T06:27:58.991Z,1004.95
2019-01-22T06:28:58.999Z,1004.92
2019-01-22T06:29:59.010Z,1004.91
2019-01-22T06:30:59.017Z,1004.88
2019-01-22T06:31:59.030Z,1004.86
2019-01-22T06:32:59.039Z,1004.82
2019-01-22T06:33:59.049Z,1004.83
2019-01-22T06:34:59.064Z,1004.79
2019-01-22T06:35:59.067Z,1004.77
2019-01-22T06:36:59.078Z,1004.75
2019-01-22T06:37:59.087Z,1004.75
2019-01-22T06:38:59.101Z,1004.74
2019-01-22T06:39:59.108Z,1004.74
2019-01-22T06:40:59.116Z,1004.74
2019-01-22T06:41:59.127Z,1004.70
2019-01-22T06:42:59.139Z,1004.70
2019-01-22T06:43:59.148Z,1004.67
2019-01-22T06:44:59.158Z,1004.66
2019-01-22T06:45:59.169Z,1004.62
2019-01-22T06:46:59.177Z,1004.62
2019-01-22T06:47:59.186Z,1004.60
2019-01-22T06:48:59.201Z,1004.60
2019-01-22T06:49:59.209Z,1004.59
2019-01-22T06:50:59.219Z,1004.61
2019-01-22T06:51:59.227Z,1004.57
2019-01-22T06:52:59.235Z,1004.53
2019-01-22T06:53:59.249Z,1004.57
2019-01-22T06:54:59.256Z,1004.55
2019-01-22T06:55:59.267Z,1004.53
2019-01-22T06:56:59.276Z,1004.51
2019-01-22T06:57:59.289Z,1004.48
2019-01-22T06:58:59.297Z,1004.48
2019-01-22T06:59:59.307Z,1004.47
2019-01-22T07:00:59.318Z,1004.45
2019-01-22T07:01:59.326Z,1004.44
2019-01-22T07:02:59.334Z,1004.44
2019-01-22T07:03:59.344Z,1004.41
2019-01-22T07:04:59.356Z,1004.40
2019-01-22T07:05:59.366Z,1004.42
2019-01-22T07:06:59.374Z,1004.38
2019-01-22T07:07:59.383Z,1004.35
2019-01-22T07:08:59.394Z,1004.31
2019-01-22T07:10:00.504Z,1004.35
2019-01-22T07:10:59.414Z,1004.29
2019-01-22T07:11:59.431Z,1004.27
2019-01-22T07:12:59.433Z,1004.23
2019-01-22T07:13:59.446Z,1004.22
2019-01-22T07:14:59.456Z,1004.19
2019-01-22T07:15:59.464Z,1004.18
2019-01-22T07:16:59.472Z,1004.15
2019-01-22T07:17:59.485Z,1004.12
2019-01-22T07:18:59.497Z,1004.18
2019-01-22T07:19:59.501Z,1004.18
2019-01-22T07:20:59.512Z,1004.15
2019-01-22T07:21:59.525Z,1004.13
2019-01-22T07:22:59.535Z,1004.13
2019-01-22T07:23:59.541Z,1004.08
2019-01-22T07:25:04.655Z,1004.09
2019-01-22T07:25:59.563Z,1004.10
2019-01-22T07:26:59.573Z,1004.09
2019-01-22T07:27:59.583Z,1004.04
2019-01-22T07:28:59.594Z,1004.02
2019-01-22T07:29:59.603Z,1003.97
2019-01-22T07:30:59.613Z,1003.96
2019-01-22T07:31:59.622Z,1003.96
2019-01-22T07:32:59.632Z,1003.93
2019-01-22T07:33:59.640Z,1003.89
2019-01-22T07:34:59.655Z,1003.89
2019-01-22T07:35:59.659Z,1003.88
2019-01-22T07:36:59.670Z,1003.80
2019-01-22T07:37:59.683Z,1003.81
2019-01-22T07:38:59.691Z,1003.75
2019-01-22T07:39:59.700Z,1003.82
2019-01-22T07:40:59.712Z,1003.79
2019-01-22T07:41:59.719Z,1003.77
2019-01-22T07:42:59.731Z,1003.73
2019-01-22T07:43:59.741Z,1003.75
2019-01-22T07:44:59.748Z,1003.74
2019-01-22T07:45:59.759Z,1003.69
2019-01-22T07:46:59.771Z,1003.77
2019-01-22T07:47:59.778Z,1003.80
2019-01-22T07:48:59.790Z,1003.72
2019-01-22T07:49:59.798Z,1003.76
2019-01-22T07:50:59.810Z,1003.71
2019-01-22T07:51:59.818Z,1003.72
2019-01-22T07:52:59.827Z,1003.66
2019-01-22T07:53:59.837Z,1003.63
2019-01-22T07:54:59.848Z,1003.61
2019-01-22T07:55:59.862Z,1003.63
2019-01-22T07:56:59.871Z,1003.61
2019-01-22T07:57:59.879Z,1003.60
2019-01-22T07:58:59.889Z,1003.58
2019-01-22T07:59:59.899Z,1003.61
2019-01-22T08:00:59.906Z,1003.59
2019-01-22T08:01:59.918Z,1003.59
2019-01-22T08:02:59.930Z,1003.58
2019-01-22T08:03:59.940Z,1003.58
2019-01-22T08:04:59.946Z,1003.54
2019-01-22T08:05:59.956Z,1003.57
2019-01-22T08:06:59.971Z,1003.53
2019-01-22T08:07:59.978Z,1003.54
2019-01-22T08:08:59.988Z,1003.53
2019-01-22T08:09:59.999Z,1003.52
2019-01-22T08:11:00.404Z,1003.53
2019-01-22T08:12:00.019Z,1003.48
2019-01-22T08:13:00.026Z,1003.49
2019-01-22T08:14:00.037Z,1003.47
2019-01-22T08:15:00.128Z,1003.47
2019-01-22T08:16:00.055Z,1003.47
2019-01-22T08:17:00.068Z,1003.42
2019-01-22T08:18:00.078Z,1003.44
2019-01-22T08:19:00.092Z,1003.48
2019-01-22T08:20:00.175Z,1003.49
2019-01-22T08:21:00.105Z,1003.46
2019-01-22T08:22:00.116Z,1003.49
2019-01-22T08:23:00.127Z,1003.49
2019-01-22T08:24:00.139Z,1003.44
2019-01-22T08:25:00.831Z,1003.50
2019-01-22T08:26:00.157Z,1003.48
2019-01-22T08:27:00.167Z,1003.47
2019-01-22T08:28:00.178Z,1003.45
2019-01-22T08:29:00.186Z,1003.43
2019-01-22T08:30:00.215Z,1003.42
2019-01-22T08:31:00.210Z,1003.38
2019-01-22T08:32:00.220Z,1003.35
2019-01-22T08:33:00.230Z,1003.38
2019-01-22T08:34:00.241Z,1003.37
2019-01-22T08:35:00.291Z,1003.30
2019-01-22T08:36:00.258Z,1003.29
2019-01-22T08:37:00.271Z,1003.26
2019-01-22T08:38:00.282Z,1003.30
2019-01-22T08:39:00.290Z,1003.27
2019-01-22T08:40:00.303Z,1003.25
2019-01-22T08:41:00.310Z,1003.29
2019-01-22T08:42:00.322Z,1003.28
2019-01-22T08:43:00.334Z,1003.23
2019-01-22T08:44:00.341Z,1003.20
2019-01-22T08:45:00.351Z,1003.16
2019-01-22T08:46:00.364Z,1003.16
2019-01-22T08:47:00.376Z,1003.15
2019-01-22T08:48:00.383Z,1003.14
2019-01-22T08:49:00.394Z,1003.15
2019-01-22T08:50:00.408Z,1003.15
2019-01-22T08:51:00.417Z,1003.14
2019-01-22T08:52:00.427Z,1003.13
2019-01-22T08:53:00.436Z,1003.12
2019-01-22T08:54:00.447Z,1003.12
2019-01-22T08:55:00.518Z,1003.11
2019-01-22T08:56:00.469Z,1003.05
2019-01-22T08:57:00.483Z,1003.07
2019-01-22T08:58:01.748Z,1003.07
2019-01-22T08:59:00.503Z,1003.05
2019-01-22T09:00:00.513Z,1003.05
2019-01-22T09:01:00.525Z,1003.02
2019-01-22T09:02:00.532Z,1003.02
2019-01-22T09:03:00.545Z,1003.03
2019-01-22T09:04:00.555Z,1003.01
2019-01-22T09:05:00.566Z,1003.00
2019-01-22T09:06:00.575Z,1003.02
2019-01-22T09:07:00.590Z,1002.95
2019-01-22T09:08:00.599Z,1003.00
2019-01-22T09:09:00.608Z,1002.97
2019-01-22T09:10:00.621Z,1002.93
2019-01-22T09:11:00.630Z,1002.97
2019-01-22T09:12:00.642Z,1002.92
2019-01-22T09:13:00.655Z,1002.91
2019-01-22T09:14:00.665Z,1002.88
2019-01-22T09:15:00.672Z,1002.89
2019-01-22T09:16:00.683Z,1002.87
2019-01-22T09:17:00.693Z,1002.84
2019-01-22T09:18:00.708Z,1002.84
2019-01-22T09:19:00.716Z,1002.81
2019-01-22T09:20:00.726Z,1002.87
2019-01-22T09:21:00.741Z,1002.83
2019-01-22T09:22:00.750Z,1002.79
2019-01-22T09:23:00.760Z,1002.78
2019-01-22T09:24:01.884Z,1002.70
2019-01-22T09:25:00.782Z,1002.72
2019-01-22T09:26:00.795Z,1002.74
2019-01-22T09:27:00.807Z,1002.75
2019-01-22T09:28:00.815Z,1002.75
2019-01-22T09:29:00.828Z,1002.71
2019-01-22T09:30:00.840Z,1002.66
2019-01-22T09:31:00.852Z,1002.68
2019-01-22T09:32:00.862Z,1002.70
2019-01-22T09:33:00.873Z,1002.63
2019-01-22T09:34:00.882Z,1002.62
2019-01-22T09:35:00.896Z,1002.59
2019-01-22T09:36:00.905Z,1002.61
2019-01-22T09:37:00.916Z,1002.58
2019-01-22T09:38:00.927Z,1002.57
2019-01-22T09:39:00.940Z,1002.52
2019-01-22T09:40:00.951Z,1002.50
2019-01-22T09:41:00.962Z,1002.45
2019-01-22T09:42:00.974Z,1002.48
2019-01-22T09:43:00.987Z,1002.50
2019-01-22T09:44:00.995Z,1002.47
2019-01-22T09:45:01.007Z,1002.42
2019-01-22T09:46:01.020Z,1002.45
2019-01-22T09:47:01.033Z,1002.40
2019-01-22T09:48:01.046Z,1002.39
2019-01-22T09:49:01.059Z,1002.38
2019-01-22T09:50:01.066Z,1002.38
2019-01-22T09:51:01.081Z,1002.37
2019-01-22T09:52:01.087Z,1002.36
2019-01-22T09:53:01.099Z,1002.36
2019-01-22T09:54:01.110Z,1002.35
2019-01-22T09:55:01.123Z,1002.34
2019-01-22T09:56:01.181Z,1002.34
2019-01-22T09:57:01.145Z,1002.28
2019-01-22T09:58:01.157Z,1002.26
2019-01-22T09:59:01.171Z,1002.24
2019-01-22T10:00:01.180Z,1002.24
2019-01-22T10:01:01.191Z,1002.17
2019-01-22T10:02:01.204Z,1002.11
2019-01-22T10:03:01.217Z,1002.11
2019-01-22T10:04:03.610Z,1002.06
2019-01-22T10:05:01.271Z,1002.09
2019-01-22T10:06:01.252Z,1002.02
2019-01-22T10:07:01.263Z,1002.03
2019-01-22T10:08:01.275Z,1002.02
2019-01-22T10:09:01.291Z,1002.03
2019-01-22T10:10:01.306Z,1002.03
2019-01-22T10:11:01.948Z,1002.02
2019-01-22T10:12:01.325Z,1001.98
2019-01-22T10:13:01.335Z,1001.96
2019-01-22T10:14:01.344Z,1001.91
2019-01-22T10:15:01.362Z,1001.91
2019-01-22T10:16:01.370Z,1001.89
2019-01-22T10:17:01.382Z,1001.88
2019-01-22T10:18:01.392Z,1001.85
2019-01-22T10:19:01.404Z,1001.86
2019-01-22T10:20:01.420Z,1001.86
2019-01-22T10:21:01.429Z,1001.81
2019-01-22T10:22:01.446Z,1001.83
2019-01-22T10:23:01.455Z,1001.79
2019-01-22T10:24:01.463Z,1001.75
2019-01-22T10:25:01.478Z,1001.77
2019-01-22T10:26:01.491Z,1001.75
2019-01-22T10:27:01.503Z,1001.66
2019-01-22T10:28:01.514Z,1001.65
2019-01-22T10:29:01.526Z,1001.61
2019-01-22T10:30:01.539Z,1001.62
2019-01-22T10:31:01.549Z,1001.56
2019-01-22T10:32:01.565Z,1001.57
2019-01-22T10:33:01.573Z,1001.55
2019-01-22T10:34:01.586Z,1001.48
2019-01-22T10:35:01.600Z,1001.44
2019-01-22T10:36:01.611Z,1001.47
2019-01-22T10:37:01.624Z,1001.44
2019-01-22T10:38:01.635Z,1001.49
2019-01-22T10:39:01.646Z,1001.45
2019-01-22T10:40:01.658Z,1001.42
2019-01-22T10:41:01.673Z,1001.44
2019-01-22T10:42:01.687Z,1001.43
2019-01-22T10:43:01.697Z,1001.42
2019-01-22T10:44:01.707Z,1001.43
2019-01-22T10:45:01.720Z,1001.36
2019-01-22T10:46:01.735Z,1001.36
2019-01-22T10:47:01.745Z,1001.37
2019-01-22T10:48:02.159Z,1001.36
2019-01-22T10:49:01.771Z,1001.27
2019-01-22T10:50:01.792Z,1001.22
2019-01-22T10:51:01.794Z,1001.26
2019-01-22T10:52:01.809Z,1001.20
2019-01-22T10:53:01.821Z,1001.22
2019-01-22T10:54:01.832Z,1001.20
2019-01-22T10:55:01.845Z,1001.18
2019-01-22T10:56:01.857Z,1001.06
2019-01-22T10:57:01.871Z,1001.07
2019-01-22T10:58:01.881Z,1001.08
2019-01-22T10:59:01.896Z,1001.02
2019-01-22T11:00:01.907Z,1001.03
2019-01-22T11:01:01.925Z,1000.99
2019-01-22T11:02:01.932Z,1000.97
2019-01-22T11:03:01.948Z,1000.95
2019-01-22T11:04:01.957Z,1000.94
2019-01-22T11:05:01.971Z,1000.90
2019-01-22T11:06:01.986Z,1000.89
2019-01-22T11:07:01.998Z,1000.87
2019-01-22T11:08:02.011Z,1000.90
2019-01-22T11:09:02.026Z,1000.83
2019-01-22T11:10:02.034Z,1000.82
2019-01-22T11:11:02.052Z,1000.84
2019-01-22T11:12:02.062Z,1000.83
2019-01-22T11:13:02.076Z,1000.77
2019-01-22T11:14:02.088Z,1000.80
2019-01-22T11:15:02.101Z,1000.75
2019-01-22T11:16:02.113Z,1000.77
2019-01-22T11:17:02.124Z,1000.76
2019-01-22T11:18:02.140Z,1000.77
2019-01-22T11:19:02.150Z,1000.78
2019-01-22T11:20:02.164Z,1000.78
2019-01-22T11:21:02.179Z,1000.79
2019-01-22T11:22:02.188Z,1000.76
2019-01-22T11:23:02.204Z,1000.80
2019-01-22T11:24:02.218Z,1000.80
2019-01-22T11:25:02.226Z,1000.71
2019-01-22T11:26:02.239Z,1000.70
2019-01-22T11:27:02.254Z,1000.65
2019-01-22T11:28:02.265Z,1000.65
2019-01-22T11:29:02.277Z,1000.65
2019-01-22T11:30:02.295Z,1000.56
2019-01-22T11:31:02.312Z,1000.54
2019-01-22T11:32:02.319Z,1000.47
2019-01-22T11:33:02.334Z,1000.53
2019-01-22T11:34:02.346Z,1000.43
2019-01-22T11:35:02.358Z,1000.44
2019-01-22T11:36:02.372Z,1000.45
2019-01-22T11:37:02.384Z,1000.36
2019-01-22T11:38:02.396Z,1000.36
2019-01-22T11:39:02.411Z,1000.32
2019-01-22T11:40:02.422Z,1000.35
2019-01-22T11:41:02.436Z,1000.38
2019-01-22T11:42:02.450Z,1000.25
2019-01-22T11:43:02.463Z,1000.34
2019-01-22T11:44:02.474Z,1000.22
2019-01-22T11:45:02.486Z,1000.24
2019-01-22T11:46:02.500Z,1000.25
2019-01-22T11:47:02.516Z,1000.29
2019-01-22T11:48:02.529Z,1000.25
2019-01-22T11:49:02.541Z,1000.25
2019-01-22T11:50:02.559Z,1000.25
2019-01-22T11:51:02.569Z,1000.26
2019-01-22T11:52:02.584Z,1000.30
2019-01-22T11:53:02.592Z,1000.28
2019-01-22T11:54:02.689Z,1000.22
2019-01-22T11:55:02.623Z,1000.10
2019-01-22T11:56:02.634Z,1000.09
2019-01-22T11:57:02.648Z,1000.00
2019-01-22T11:58:02.663Z,1000.01
2019-01-22T11:59:02.676Z,1000.02
2019-01-22T12:00:02.689Z,999.98
2019-01-22T12:01:02.705Z,999.98
2019-01-22T12:02:03.067Z,999.94
2019-01-22T12:03:02.729Z,999.92
2019-01-22T12:04:02.744Z,999.91
2019-01-22T12:05:02.757Z,999.91
2019-01-22T12:06:02.769Z,999.95
2019-01-22T12:07:02.785Z,999.86